PWSweather.com
Personal Weather Stations
Station Observations

PoschiavoCH

Lat: 46.31962499999999, Lon: 10.066551000000004

Elevation: 3517

Station Type: WH 1080

http://www.meteoposchiavo.com

High Low Average
Temperature 70.0°F21.1°C 50.0°F10.0°C 58.3°F14.6°C
Dew Point 58.1°F14.5°C 48.4°F9.1°C 53.4°F11.9°C
Winds 3.5 mph 5.6 kmh Calm Calm Calm ESECalm ESE
Wind Gusts 3.5 mph5.6 kmh -- 1.0 mph1.6 kmh
Humidity 98% 55% 85%
Pressure 26.59 in900.4 mb 26.44 in895.4 mb -
Precipitation 0.35 in8.9 mm - -
Hour Temp Dew Point Humidity Winds Wind Gusts Pressure Precip Precip Rate Daily Precip Total
12:00 AM 55.0°F12.8°C 53.9°F12.2°C 96% Calm Calm -- 26.48 in896.7 mb - 0.04 in1.0 mm 0.04 in1.0 mm
12:10 AM 55.0°F12.8°C 53.9°F12.2°C 96% Calm Calm -- 26.47 in896.4 mb - 0.04 in1.0 mm 0.04 in1.0 mm
12:15 AM 57.0°F13.9°C 55.9°F13.3°C 96% Calm Calm -- 26.46 in896.0 mb - 0.04 in1.0 mm 0.04 in1.0 mm
12:20 AM 55.0°F12.8°C 53.9°F12.2°C 96% Calm Calm -- 26.48 in896.7 mb - 0.08 in2.0 mm 0.08 in2.0 mm
12:25 AM 57.0°F13.9°C 55.3°F12.9°C 94% Calm Calm -- 26.45 in895.7 mb - 0.06 in1.5 mm 0.08 in2.0 mm
12:30 AM 54.0°F12.2°C 52.9°F11.6°C 96% Calm Calm -- 26.48 in896.7 mb - 0.09 in2.3 mm 0.12 in3.0 mm
12:35 AM 54.0°F12.2°C 52.9°F11.6°C 96% Calm Calm -- 26.48 in896.7 mb - 0.09 in2.3 mm 0.12 in3.0 mm
12:40 AM 54.0°F12.2°C 53.2°F11.8°C 97% Calm Calm -- 26.48 in896.7 mb - 0.08 in2.0 mm 0.12 in3.0 mm
12:45 AM 54.0°F12.2°C 53.2°F11.8°C 97% Calm Calm -- 26.48 in896.7 mb - 0.08 in2.0 mm 0.12 in3.0 mm
12:50 AM 54.0°F12.2°C 53.2°F11.8°C 97% Calm Calm -- 26.47 in896.4 mb - 0.08 in2.0 mm 0.12 in3.0 mm
12:55 AM 54.0°F12.2°C 53.2°F11.8°C 97% Calm Calm -- 26.47 in896.4 mb - 0.08 in2.0 mm 0.12 in3.0 mm
01:00 AM 54.0°F12.2°C 53.2°F11.8°C 97% Calm Calm -- 26.47 in896.4 mb - 0.08 in2.0 mm 0.12 in3.0 mm
01:10 AM 53.0°F11.7°C 52.2°F11.2°C 97% Calm Calm -- 26.47 in896.4 mb - 0.08 in2.0 mm 0.12 in3.0 mm
01:15 AM 53.0°F11.7°C 52.2°F11.2°C 97% Calm Calm -- 26.48 in896.7 mb - 0.08 in2.0 mm 0.12 in3.0 mm
01:20 AM 53.0°F11.7°C 52.2°F11.2°C 97% Calm Calm -- 26.48 in896.7 mb - 0.04 in1.0 mm 0.12 in3.0 mm
01:25 AM 53.0°F11.7°C 52.2°F11.2°C 97% Calm Calm -- 26.47 in896.4 mb - 0.04 in1.0 mm 0.12 in3.0 mm
01:30 AM 53.0°F11.7°C 52.2°F11.2°C 97% Calm Calm -- 26.48 in896.7 mb - 0.00 in0.0 mm 0.12 in3.0 mm
01:35 AM 53.0°F11.7°C 52.2°F11.2°C 97% Calm Calm -- 26.47 in896.4 mb - 0.00 in0.0 mm 0.12 in3.0 mm
01:40 AM 53.0°F11.7°C 52.2°F11.2°C 97% Calm Calm -- 26.48 in896.7 mb - 0.00 in0.0 mm 0.12 in3.0 mm
01:45 AM 53.0°F11.7°C 52.2°F11.2°C 97% Calm Calm -- 26.47 in896.4 mb - 0.00 in0.0 mm 0.12 in3.0 mm
01:50 AM 53.0°F11.7°C 52.2°F11.2°C 97% Calm Calm -- 26.47 in896.4 mb - 0.00 in0.0 mm 0.12 in3.0 mm
01:55 AM 53.0°F11.7°C 52.2°F11.2°C 97% Calm Calm -- 26.47 in896.4 mb - 0.00 in0.0 mm 0.12 in3.0 mm
02:00 AM 53.0°F11.7°C 52.2°F11.2°C 97% Calm Calm -- 26.48 in896.7 mb - 0.00 in0.0 mm 0.12 in3.0 mm
02:10 AM 52.0°F11.1°C 51.2°F10.7°C 97% Calm Calm -- 26.47 in896.4 mb - 0.00 in0.0 mm 0.12 in3.0 mm
02:15 AM 52.0°F11.1°C 51.2°F10.7°C 97% Calm Calm -- 26.47 in896.4 mb - 0.00 in0.0 mm 0.12 in3.0 mm
02:20 AM 52.0°F11.1°C 51.2°F10.7°C 97% Calm Calm -- 26.47 in896.4 mb - 0.00 in0.0 mm 0.12 in3.0 mm
02:25 AM 52.0°F11.1°C 51.2°F10.7°C 97% Calm Calm -- 26.47 in896.4 mb - 0.00 in0.0 mm 0.12 in3.0 mm
02:30 AM 52.0°F11.1°C 51.2°F10.7°C 97% Calm Calm -- 26.47 in896.4 mb - 0.00 in0.0 mm 0.12 in3.0 mm
02:35 AM 52.0°F11.1°C 51.2°F10.7°C 97% Calm Calm -- 26.47 in896.4 mb - 0.00 in0.0 mm 0.12 in3.0 mm
02:40 AM 52.0°F11.1°C 51.2°F10.7°C 97% Calm Calm -- 26.47 in896.4 mb - 0.00 in0.0 mm 0.12 in3.0 mm
02:45 AM 52.0°F11.1°C 51.2°F10.7°C 97% Calm Calm -- 26.47 in896.4 mb - 0.00 in0.0 mm 0.12 in3.0 mm
02:50 AM 52.0°F11.1°C 51.2°F10.7°C 97% Calm Calm -- 26.47 in896.4 mb - 0.00 in0.0 mm 0.12 in3.0 mm
02:55 AM 52.0°F11.1°C 51.2°F10.7°C 97% Calm Calm -- 26.47 in896.4 mb - 0.00 in0.0 mm 0.12 in3.0 mm
03:00 AM 51.5°F10.8°C 50.7°F10.4°C 97% Calm Calm -- 26.47 in896.4 mb - 0.00 in0.0 mm 0.12 in3.0 mm
03:10 AM 51.0°F10.6°C 50.2°F10.1°C 97% Calm Calm -- 26.46 in896.0 mb - 0.00 in0.0 mm 0.12 in3.0 mm
03:15 AM 51.0°F10.6°C 50.2°F10.1°C 97% Calm Calm -- 26.47 in896.4 mb - 0.00 in0.0 mm 0.12 in3.0 mm
03:20 AM 54.0°F12.2°C 52.9°F11.6°C 96% Calm Calm -- 26.48 in896.7 mb - 0.20 in5.1 mm 0.32 in8.1 mm
03:25 AM 51.0°F10.6°C 50.2°F10.1°C 97% Calm Calm -- 26.47 in896.4 mb - 0.20 in5.1 mm 0.32 in8.1 mm
03:30 AM 51.0°F10.6°C 50.2°F10.1°C 97% Calm Calm -- 26.47 in896.4 mb - 0.20 in5.1 mm 0.32 in8.1 mm
03:35 AM 51.0°F10.6°C 50.2°F10.1°C 97% Calm Calm -- 26.47 in896.4 mb - 0.20 in5.1 mm 0.32 in8.1 mm
03:40 AM 51.0°F10.6°C 50.2°F10.1°C 97% Calm Calm -- 26.47 in896.4 mb - 0.20 in5.1 mm 0.32 in8.1 mm
03:45 AM 51.0°F10.6°C 50.2°F10.1°C 97% Calm Calm -- 26.47 in896.4 mb - 0.20 in5.1 mm 0.32 in8.1 mm
03:50 AM 51.0°F10.6°C 50.2°F10.1°C 97% Calm Calm -- 26.47 in896.4 mb - 0.20 in5.1 mm 0.32 in8.1 mm
03:55 AM 51.0°F10.6°C 50.2°F10.1°C 97% Calm Calm -- 26.48 in896.7 mb - 0.20 in5.1 mm 0.32 in8.1 mm
04:00 AM 51.0°F10.6°C 50.2°F10.1°C 97% Calm Calm -- 26.47 in896.4 mb - 0.20 in5.1 mm 0.32 in8.1 mm
04:10 AM 50.0°F10.0°C 49.2°F9.6°C 97% Calm Calm -- 26.48 in896.7 mb - 0.20 in5.1 mm 0.32 in8.1 mm
04:15 AM 51.0°F10.6°C 50.2°F10.1°C 97% Calm Calm -- 26.48 in896.7 mb - 0.20 in5.1 mm 0.32 in8.1 mm
04:20 AM 50.0°F10.0°C 49.2°F9.6°C 97% Calm Calm -- 26.48 in896.7 mb - 0.00 in0.0 mm 0.32 in8.1 mm
04:25 AM 50.0°F10.0°C 49.2°F9.6°C 97% Calm Calm -- 26.48 in896.7 mb - 0.00 in0.0 mm 0.32 in8.1 mm
04:30 AM 50.0°F10.0°C 49.2°F9.6°C 97% Calm Calm -- 26.48 in896.7 mb - 0.00 in0.0 mm 0.32 in8.1 mm
04:35 AM 50.0°F10.0°C 49.2°F9.6°C 97% Calm Calm -- 26.48 in896.7 mb - 0.00 in0.0 mm 0.32 in8.1 mm
04:40 AM 50.0°F10.0°C 49.2°F9.6°C 97% Calm Calm 1.2 mph1.9 kmh 26.48 in896.7 mb - 0.00 in0.0 mm 0.32 in8.1 mm
04:45 AM 50.0°F10.0°C 49.2°F9.6°C 97% Calm Calm 1.2 mph1.9 kmh 26.48 in896.7 mb - 0.00 in0.0 mm 0.32 in8.1 mm
04:50 AM 51.0°F10.6°C 50.2°F10.1°C 97% Calm Calm -- 26.48 in896.7 mb - 0.00 in0.0 mm 0.32 in8.1 mm
04:55 AM 51.0°F10.6°C 50.2°F10.1°C 97% Calm Calm -- 26.47 in896.4 mb - 0.00 in0.0 mm 0.32 in8.1 mm
05:00 AM 50.0°F10.0°C 49.2°F9.6°C 97% Calm Calm 1.2 mph1.9 kmh 26.48 in896.7 mb - 0.00 in0.0 mm 0.32 in8.1 mm
05:10 AM 51.0°F10.6°C 50.2°F10.1°C 97% Calm Calm -- 26.48 in896.7 mb - 0.00 in0.0 mm 0.32 in8.1 mm
05:15 AM 51.0°F10.6°C 50.2°F10.1°C 97% Calm Calm -- 26.49 in897.1 mb - 0.00 in0.0 mm 0.32 in8.1 mm
05:20 AM 51.0°F10.6°C 50.2°F10.1°C 97% Calm Calm -- 26.49 in897.1 mb - 0.00 in0.0 mm 0.32 in8.1 mm
05:25 AM 50.0°F10.0°C 49.2°F9.6°C 97% Calm Calm -- 26.49 in897.1 mb - 0.00 in0.0 mm 0.32 in8.1 mm
05:30 AM 50.0°F10.0°C 49.2°F9.6°C 97% Calm Calm -- 26.49 in897.1 mb - 0.00 in0.0 mm 0.32 in8.1 mm
05:35 AM 50.0°F10.0°C 49.2°F9.6°C 97% Calm Calm -- 26.49 in897.1 mb - 0.00 in0.0 mm 0.32 in8.1 mm
05:40 AM 50.0°F10.0°C 49.2°F9.6°C 97% Calm Calm -- 26.49 in897.1 mb - 0.00 in0.0 mm 0.32 in8.1 mm
05:45 AM 50.0°F10.0°C 49.5°F9.7°C 98% Calm Calm -- 26.49 in897.1 mb - 0.00 in0.0 mm 0.32 in8.1 mm
05:50 AM 50.0°F10.0°C 49.5°F9.7°C 98% Calm Calm -- 26.49 in897.1 mb - 0.00 in0.0 mm 0.32 in8.1 mm
05:55 AM 50.0°F10.0°C 49.5°F9.7°C 98% Calm Calm -- 26.48 in896.7 mb - 0.00 in0.0 mm 0.32 in8.1 mm
06:00 AM 50.0°F10.0°C 49.5°F9.7°C 98% Calm Calm -- 26.48 in896.7 mb - 0.00 in0.0 mm 0.32 in8.1 mm
06:10 AM 51.0°F10.6°C 50.4°F10.2°C 98% Calm Calm -- 26.48 in896.7 mb - 0.00 in0.0 mm 0.32 in8.1 mm
06:15 AM 50.0°F10.0°C 49.5°F9.7°C 98% Calm Calm -- 26.48 in896.7 mb - 0.00 in0.0 mm 0.32 in8.1 mm
06:20 AM 50.0°F10.0°C 49.5°F9.7°C 98% Calm Calm -- 26.47 in896.4 mb - 0.00 in0.0 mm 0.32 in8.1 mm
06:25 AM 51.0°F10.6°C 50.5°F10.3°C 98% Calm Calm -- 26.48 in896.7 mb - 0.00 in0.0 mm 0.32 in8.1 mm
06:30 AM 51.0°F10.6°C 50.2°F10.1°C 97% Calm Calm -- 26.48 in896.7 mb - 0.00 in0.0 mm 0.32 in8.1 mm
06:35 AM 51.8°F11.0°C 51.0°F10.6°C 97% Calm Calm -- 26.48 in896.7 mb - 0.00 in0.0 mm 0.32 in8.1 mm
06:40 AM 52.0°F11.1°C 51.2°F10.7°C 97% Calm Calm -- 26.48 in896.7 mb - 0.00 in0.0 mm 0.32 in8.1 mm
06:45 AM 52.0°F11.1°C 51.5°F10.8°C 98% Calm Calm -- 26.47 in896.4 mb - 0.00 in0.0 mm 0.32 in8.1 mm
06:50 AM 53.0°F11.7°C 52.2°F11.2°C 97% Calm Calm -- 26.47 in896.4 mb - 0.00 in0.0 mm 0.32 in8.1 mm
06:55 AM 53.0°F11.7°C 51.9°F11.1°C 96% Calm Calm -- 26.47 in896.4 mb - 0.00 in0.0 mm 0.32 in8.1 mm
07:00 AM 53.0°F11.7°C 51.9°F11.1°C 96% Calm Calm -- 26.47 in896.4 mb - 0.00 in0.0 mm 0.32 in8.1 mm
07:10 AM 54.0°F12.2°C 52.9°F11.6°C 96% Calm Calm -- 26.47 in896.4 mb - 0.00 in0.0 mm 0.32 in8.1 mm
07:15 AM 54.0°F12.2°C 52.9°F11.6°C 96% Calm Calm -- 26.47 in896.4 mb - 0.00 in0.0 mm 0.32 in8.1 mm
07:20 AM 54.0°F12.2°C 52.3°F11.3°C 94% Calm Calm -- 26.48 in896.7 mb - 0.00 in0.0 mm 0.32 in8.1 mm
07:25 AM 55.0°F12.8°C 53.0°F11.7°C 93% Calm Calm -- 26.47 in896.4 mb - 0.00 in0.0 mm 0.32 in8.1 mm
07:30 AM 55.0°F12.8°C 53.3°F11.8°C 94% Calm Calm -- 26.47 in896.4 mb - 0.00 in0.0 mm 0.32 in8.1 mm
07:35 AM 56.1°F13.4°C 54.1°F12.3°C 93% Calm Calm -- 26.48 in896.7 mb - 0.00 in0.0 mm 0.32 in8.1 mm
07:40 AM 57.0°F13.9°C 54.7°F12.6°C 92% Calm Calm -- 26.48 in896.7 mb - 0.00 in0.0 mm 0.32 in8.1 mm
07:45 AM 57.0°F13.9°C 54.4°F12.4°C 91% Calm Calm -- 26.47 in896.4 mb - 0.00 in0.0 mm 0.32 in8.1 mm
07:50 AM 58.0°F14.4°C 55.1°F12.8°C 90% Calm Calm -- 26.47 in896.4 mb - 0.00 in0.0 mm 0.32 in8.1 mm
07:55 AM 59.0°F15.0°C 54.2°F12.3°C 84% Calm Calm -- 26.47 in896.4 mb - 0.00 in0.0 mm 0.32 in8.1 mm
08:00 AM 59.0°F15.0°C 54.5°F12.5°C 85% Calm Calm -- 26.46 in896.0 mb - 0.00 in0.0 mm 0.32 in8.1 mm
08:10 AM 59.0°F15.0°C 54.8°F12.7°C 86% Calm Calm -- 26.47 in896.4 mb - 0.00 in0.0 mm 0.32 in8.1 mm
08:15 AM 59.0°F15.0°C 54.8°F12.7°C 86% Calm Calm -- 26.47 in896.4 mb - 0.00 in0.0 mm 0.32 in8.1 mm
08:20 AM 59.0°F15.0°C 55.4°F13.0°C 88% Calm Calm -- 26.47 in896.4 mb - 0.00 in0.0 mm 0.32 in8.1 mm
08:25 AM 59.0°F15.0°C 52.5°F11.4°C 79% Calm Calm -- 26.47 in896.4 mb - 0.00 in0.0 mm 0.32 in8.1 mm
08:30 AM 60.9°F16.1°C 54.7°F12.6°C 80% Calm Calm -- 26.47 in896.4 mb - 0.00 in0.0 mm 0.32 in8.1 mm
08:35 AM 61.0°F16.1°C 54.8°F12.7°C 80% Calm Calm 1.2 mph1.9 kmh 26.47 in896.4 mb - 0.00 in0.0 mm 0.32 in8.1 mm
08:40 AM 62.0°F16.7°C 56.1°F13.4°C 81% Calm Calm 1.2 mph1.9 kmh 26.48 in896.7 mb - 0.00 in0.0 mm 0.32 in8.1 mm
08:45 AM 64.0°F17.8°C 57.7°F14.3°C 80% Calm Calm -- 26.47 in896.4 mb - 0.00 in0.0 mm 0.32 in8.1 mm
08:50 AM 66.0°F18.9°C 57.5°F14.2°C 74% Calm Calm -- 26.47 in896.4 mb - 0.01 in0.3 mm 0.33 in8.4 mm
08:55 AM 64.0°F17.8°C 56.6°F13.7°C 77% Calm Calm -- 26.47 in896.4 mb - 0.01 in0.3 mm 0.33 in8.4 mm
09:00 AM 64.0°F17.8°C 56.3°F13.5°C 76% Calm Calm -- 26.46 in896.0 mb - 0.01 in0.3 mm 0.33 in8.4 mm
09:10 AM 65.0°F18.3°C 57.2°F14.0°C 76% Calm Calm -- 26.46 in896.0 mb - 0.01 in0.3 mm 0.33 in8.4 mm
09:15 AM 66.0°F18.9°C 57.1°F13.9°C 73% Calm Calm -- 26.46 in896.0 mb - 0.01 in0.3 mm 0.33 in8.4 mm
09:20 AM 65.0°F18.3°C 56.5°F13.6°C 74% Calm Calm -- 26.46 in896.0 mb - 0.01 in0.3 mm 0.33 in8.4 mm
09:25 AM 65.0°F18.3°C 56.9°F13.8°C 75% Calm Calm -- 26.46 in896.0 mb - 0.01 in0.3 mm 0.33 in8.4 mm
09:30 AM 65.0°F18.3°C 55.8°F13.2°C 72% Calm Calm -- 26.46 in896.0 mb - 0.01 in0.3 mm 0.33 in8.4 mm
09:35 AM 65.0°F18.3°C 53.4°F11.9°C 66% Calm Calm -- 26.46 in896.0 mb - 0.01 in0.3 mm 0.33 in8.4 mm
09:40 AM 64.0°F17.8°C 55.5°F13.1°C 74% 1.2 mph N1.9 kmh N 1.2 mph1.9 kmh 26.45 in895.7 mb - 0.01 in0.3 mm 0.33 in8.4 mm
09:45 AM 65.0°F18.3°C 55.8°F13.2°C 72% Calm Calm 1.2 mph1.9 kmh 26.46 in896.0 mb - 0.01 in0.3 mm 0.33 in8.4 mm
09:50 AM 66.0°F18.9°C 55.5°F13.1°C 69% 1.2 mph S1.9 kmh S 2.3 mph3.7 kmh 26.45 in895.7 mb - 0.00 in0.0 mm 0.33 in8.4 mm
09:55 AM 66.0°F18.9°C 56.7°F13.7°C 72% 1.2 mph ESE1.9 kmh ESE 1.2 mph1.9 kmh 26.46 in896.0 mb - 0.00 in0.0 mm 0.33 in8.4 mm
10:00 AM 66.3°F19.1°C 56.6°F13.7°C 71% 1.2 mph ESE1.9 kmh ESE 1.2 mph1.9 kmh 26.46 in896.0 mb - 0.00 in0.0 mm 0.33 in8.4 mm
10:10 AM 68.0°F20.0°C 54.5°F12.5°C 62% 1.2 mph N1.9 kmh N 2.3 mph3.7 kmh 26.45 in895.7 mb - 0.00 in0.0 mm 0.33 in8.4 mm
10:15 AM 67.0°F19.4°C 56.1°F13.4°C 68% Calm Calm 1.2 mph1.9 kmh 26.44 in895.4 mb - 0.00 in0.0 mm 0.33 in8.4 mm
10:20 AM 67.0°F19.4°C 56.1°F13.4°C 68% 1.2 mph NW1.9 kmh NW 2.3 mph3.7 kmh 26.45 in895.7 mb - 0.00 in0.0 mm 0.33 in8.4 mm
10:25 AM 64.6°F18.1°C 55.7°F13.2°C 73% Calm Calm 2.3 mph3.7 kmh 26.45 in895.7 mb - 0.00 in0.0 mm 0.33 in8.4 mm
10:30 AM 64.0°F17.8°C 55.5°F13.1°C 74% Calm Calm 1.2 mph1.9 kmh 26.45 in895.7 mb - 0.00 in0.0 mm 0.33 in8.4 mm
10:35 AM 63.0°F17.2°C 54.6°F12.6°C 74% 2.3 mph N3.7 kmh N 2.3 mph3.7 kmh 26.45 in895.7 mb - 0.00 in0.0 mm 0.33 in8.4 mm
10:40 AM 63.0°F17.2°C 56.0°F13.3°C 78% Calm Calm -- 26.46 in896.0 mb - 0.00 in0.0 mm 0.33 in8.4 mm
10:45 AM 65.0°F18.3°C 56.5°F13.6°C 74% 1.2 mph NE1.9 kmh NE 1.2 mph1.9 kmh 26.45 in895.7 mb - 0.00 in0.0 mm 0.33 in8.4 mm
10:50 AM 65.0°F18.3°C 55.4°F13.0°C 71% 3.5 mph WNW5.6 kmh WNW 3.5 mph5.6 kmh 26.45 in895.7 mb - 0.00 in0.0 mm 0.33 in8.4 mm
10:55 AM 64.5°F18.1°C 55.6°F13.1°C 73% 2.3 mph NW3.7 kmh NW 3.5 mph5.6 kmh 26.45 in895.7 mb - 0.00 in0.0 mm 0.33 in8.4 mm
11:00 AM 64.0°F17.8°C 55.5°F13.1°C 74% 1.2 mph NE1.9 kmh NE 1.2 mph1.9 kmh 26.44 in895.4 mb - 0.00 in0.0 mm 0.33 in8.4 mm
11:10 AM 63.0°F17.2°C 56.4°F13.6°C 79% 1.2 mph NE1.9 kmh NE 1.2 mph1.9 kmh 26.46 in896.0 mb - 0.00 in0.0 mm 0.33 in8.4 mm
11:15 AM 62.0°F16.7°C 55.8°F13.2°C 80% 2.3 mph N3.7 kmh N 3.5 mph5.6 kmh 26.46 in896.0 mb - 0.00 in0.0 mm 0.33 in8.4 mm
11:20 AM 62.0°F16.7°C 56.1°F13.4°C 81% 2.3 mph NNW3.7 kmh NNW 2.3 mph3.7 kmh 26.46 in896.0 mb - 0.00 in0.0 mm 0.33 in8.4 mm
11:25 AM 61.7°F16.5°C 55.8°F13.2°C 81% 1.2 mph NNW1.9 kmh NNW 2.3 mph3.7 kmh 26.46 in896.0 mb - 0.00 in0.0 mm 0.33 in8.4 mm
11:30 AM 61.0°F16.1°C 54.8°F12.7°C 80% 1.2 mph NW1.9 kmh NW 1.2 mph1.9 kmh 26.47 in896.4 mb - 0.00 in0.0 mm 0.33 in8.4 mm
11:35 AM 61.0°F16.1°C 55.5°F13.1°C 82% 1.2 mph WNW1.9 kmh WNW 1.2 mph1.9 kmh 26.47 in896.4 mb - 0.00 in0.0 mm 0.33 in8.4 mm
11:40 AM 62.0°F16.7°C 57.1°F13.9°C 84% 1.2 mph WNW1.9 kmh WNW 2.3 mph3.7 kmh 26.47 in896.4 mb - 0.00 in0.0 mm 0.33 in8.4 mm
11:45 AM 62.0°F16.7°C 56.8°F13.8°C 83% 3.5 mph WSW5.6 kmh WSW 3.5 mph5.6 kmh 26.47 in896.4 mb - 0.00 in0.0 mm 0.33 in8.4 mm
11:50 AM 63.9°F17.7°C 56.5°F13.6°C 77% Calm Calm 3.5 mph5.6 kmh 26.47 in896.4 mb - 0.00 in0.0 mm 0.33 in8.4 mm
11:55 AM 64.0°F17.8°C 56.6°F13.7°C 77% Calm Calm 1.2 mph1.9 kmh 26.47 in896.4 mb - 0.00 in0.0 mm 0.33 in8.4 mm
12:00 PM 64.0°F17.8°C 57.0°F13.9°C 78% 1.2 mph NNE1.9 kmh NNE 1.2 mph1.9 kmh 26.47 in896.4 mb - 0.00 in0.0 mm 0.33 in8.4 mm
12:10 PM 64.0°F17.8°C 56.6°F13.7°C 77% 2.3 mph WNW3.7 kmh WNW 3.5 mph5.6 kmh 26.47 in896.4 mb - 0.00 in0.0 mm 0.33 in8.4 mm
12:15 PM 62.0°F16.7°C 55.8°F13.2°C 80% Calm Calm 1.2 mph1.9 kmh 26.46 in896.0 mb - 0.00 in0.0 mm 0.33 in8.4 mm
12:20 PM 62.0°F16.7°C 55.4°F13.0°C 79% 1.2 mph NE1.9 kmh NE 2.3 mph3.7 kmh 26.47 in896.4 mb - 0.00 in0.0 mm 0.33 in8.4 mm
12:25 PM 62.0°F16.7°C 55.4°F13.0°C 79% 1.2 mph ENE1.9 kmh ENE 2.3 mph3.7 kmh 26.47 in896.4 mb - 0.00 in0.0 mm 0.33 in8.4 mm
12:30 PM 62.0°F16.7°C 55.8°F13.2°C 80% Calm Calm -- 26.47 in896.4 mb - 0.00 in0.0 mm 0.33 in8.4 mm
12:35 PM 62.0°F16.7°C 57.1°F13.9°C 84% Calm Calm -- 26.47 in896.4 mb - 0.00 in0.0 mm 0.33 in8.4 mm
12:40 PM 64.0°F17.8°C 57.4°F14.1°C 79% Calm Calm 1.2 mph1.9 kmh 26.47 in896.4 mb - 0.00 in0.0 mm 0.33 in8.4 mm
12:45 PM 65.0°F18.3°C 56.9°F13.8°C 75% 1.2 mph WSW1.9 kmh WSW 2.3 mph3.7 kmh 26.47 in896.4 mb - 0.00 in0.0 mm 0.33 in8.4 mm
12:50 PM 65.9°F18.8°C 56.2°F13.4°C 71% 1.2 mph N1.9 kmh N 2.3 mph3.7 kmh 26.47 in896.4 mb - 0.00 in0.0 mm 0.33 in8.4 mm
12:55 PM 66.0°F18.9°C 56.3°F13.5°C 71% 1.2 mph N1.9 kmh N 3.5 mph5.6 kmh 26.47 in896.4 mb - 0.00 in0.0 mm 0.33 in8.4 mm
01:00 PM 66.0°F18.9°C 57.8°F14.3°C 75% 1.2 mph E1.9 kmh E 3.5 mph5.6 kmh 26.47 in896.4 mb - 0.00 in0.0 mm 0.33 in8.4 mm
01:10 PM 66.0°F18.9°C 54.7°F12.6°C 67% 1.2 mph NE1.9 kmh NE 1.2 mph1.9 kmh 26.46 in896.0 mb - 0.00 in0.0 mm 0.33 in8.4 mm
01:15 PM 65.0°F18.3°C 55.8°F13.2°C 72% 1.2 mph NE1.9 kmh NE 1.2 mph1.9 kmh 26.48 in896.7 mb - 0.00 in0.0 mm 0.33 in8.4 mm
01:20 PM 64.1°F17.8°C 56.0°F13.3°C 75% 1.2 mph N1.9 kmh N 1.2 mph1.9 kmh 26.48 in896.7 mb - 0.00 in0.0 mm 0.33 in8.4 mm
01:25 PM 64.0°F17.8°C 55.9°F13.3°C 75% 1.2 mph N1.9 kmh N 3.5 mph5.6 kmh 26.48 in896.7 mb - 0.00 in0.0 mm 0.33 in8.4 mm
01:30 PM 64.0°F17.8°C 54.4°F12.4°C 71% 3.5 mph NW5.6 kmh NW 3.5 mph5.6 kmh 26.49 in897.1 mb - 0.00 in0.0 mm 0.33 in8.4 mm
01:35 PM 62.0°F16.7°C 52.9°F11.6°C 72% Calm Calm 1.2 mph1.9 kmh 26.49 in897.1 mb - 0.00 in0.0 mm 0.33 in8.4 mm
01:40 PM 62.0°F16.7°C 54.7°F12.6°C 77% Calm Calm -- 26.49 in897.1 mb - 0.00 in0.0 mm 0.33 in8.4 mm
01:45 PM 62.0°F16.7°C 52.1°F11.2°C 70% Calm Calm -- 26.49 in897.1 mb - 0.00 in0.0 mm 0.33 in8.4 mm
01:50 PM 64.9°F18.3°C 53.6°F12.0°C 67% Calm Calm -- 26.49 in897.1 mb - 0.00 in0.0 mm 0.33 in8.4 mm
01:55 PM 65.3°F18.5°C 54.0°F12.2°C 67% Calm Calm -- 26.49 in897.1 mb - 0.00 in0.0 mm 0.33 in8.4 mm
02:00 PM 68.0°F20.0°C 56.6°F13.7°C 67% Calm Calm -- 26.49 in897.1 mb - 0.00 in0.0 mm 0.33 in8.4 mm
02:10 PM 70.0°F21.1°C 58.1°F14.5°C 66% 1.2 mph SW1.9 kmh SW 2.3 mph3.7 kmh 26.48 in896.7 mb - 0.00 in0.0 mm 0.33 in8.4 mm
02:15 PM 69.0°F20.6°C 54.5°F12.5°C 60% 2.3 mph ENE3.7 kmh ENE 3.5 mph5.6 kmh 26.48 in896.7 mb - 0.00 in0.0 mm 0.33 in8.4 mm
02:20 PM 69.9°F21.1°C 56.7°F13.7°C 63% 2.3 mph NE3.7 kmh NE 3.5 mph5.6 kmh 26.48 in896.7 mb - 0.00 in0.0 mm 0.33 in8.4 mm
02:25 PM 70.0°F21.1°C 57.3°F14.1°C 64% 2.3 mph NE3.7 kmh NE 3.5 mph5.6 kmh 26.48 in896.7 mb - 0.00 in0.0 mm 0.33 in8.4 mm
02:30 PM 68.0°F20.0°C 55.4°F13.0°C 64% 1.2 mph NE1.9 kmh NE 2.3 mph3.7 kmh 26.48 in896.7 mb - 0.00 in0.0 mm 0.33 in8.4 mm
02:35 PM 62.0°F16.7°C 57.1°F13.9°C 84% 1.2 mph WNW1.9 kmh WNW 2.3 mph3.7 kmh 26.47 in896.4 mb - 0.00 in0.0 mm 0.33 in8.4 mm
02:40 PM 65.0°F18.3°C 50.8°F10.4°C 60% 2.3 mph W3.7 kmh W 2.3 mph3.7 kmh 26.48 in896.7 mb - 0.00 in0.0 mm 0.33 in8.4 mm
02:45 PM 65.0°F18.3°C 49.9°F9.9°C 58% 1.2 mph NNW1.9 kmh NNW 2.3 mph3.7 kmh 26.48 in896.7 mb - 0.00 in0.0 mm 0.33 in8.4 mm
02:50 PM 65.0°F18.3°C 48.9°F9.4°C 56% 2.3 mph NE3.7 kmh NE 3.5 mph5.6 kmh 26.48 in896.7 mb - 0.00 in0.0 mm 0.33 in8.4 mm
02:55 PM 65.0°F18.3°C 48.4°F9.1°C 55% 2.3 mph ENE3.7 kmh ENE 3.5 mph5.6 kmh 26.48 in896.7 mb - 0.00 in0.0 mm 0.33 in8.4 mm
03:00 PM 65.0°F18.3°C 52.9°F11.6°C 65% 1.2 mph NW1.9 kmh NW 2.3 mph3.7 kmh 26.49 in897.1 mb - 0.00 in0.0 mm 0.33 in8.4 mm
03:10 PM 63.0°F17.2°C 54.2°F12.3°C 73% 1.2 mph NE1.9 kmh NE 1.2 mph1.9 kmh 26.48 in896.7 mb - 0.00 in0.0 mm 0.33 in8.4 mm
03:15 PM 64.0°F17.8°C 54.0°F12.2°C 70% Calm Calm 1.2 mph1.9 kmh 26.49 in897.1 mb - 0.00 in0.0 mm 0.33 in8.4 mm
03:20 PM 64.7°F18.2°C 54.3°F12.4°C 69% Calm Calm 1.2 mph1.9 kmh 26.49 in897.1 mb - 0.00 in0.0 mm 0.33 in8.4 mm
03:25 PM 65.0°F18.3°C 54.2°F12.3°C 68% Calm Calm -- 26.49 in897.1 mb - 0.00 in0.0 mm 0.33 in8.4 mm
03:30 PM 67.0°F19.4°C 56.1°F13.4°C 68% 2.3 mph W3.7 kmh W 2.3 mph3.7 kmh 26.49 in897.1 mb - 0.00 in0.0 mm 0.33 in8.4 mm
03:35 PM 67.0°F19.4°C 56.5°F13.6°C 69% 2.3 mph NNW3.7 kmh NNW 2.3 mph3.7 kmh 26.49 in897.1 mb - 0.00 in0.0 mm 0.33 in8.4 mm
03:40 PM 65.0°F18.3°C 54.6°F12.6°C 69% 2.3 mph NE3.7 kmh NE 2.3 mph3.7 kmh 26.49 in897.1 mb - 0.00 in0.0 mm 0.33 in8.4 mm
03:45 PM 64.0°F17.8°C 54.8°F12.7°C 72% 2.3 mph WSW3.7 kmh WSW 3.5 mph5.6 kmh 26.49 in897.1 mb - 0.00 in0.0 mm 0.33 in8.4 mm
03:50 PM 64.0°F17.8°C 54.4°F12.4°C 71% 1.2 mph WNW1.9 kmh WNW 3.5 mph5.6 kmh 26.49 in897.1 mb - 0.00 in0.0 mm 0.33 in8.4 mm
03:55 PM 64.0°F17.8°C 54.4°F12.4°C 71% 1.2 mph NW1.9 kmh NW 2.3 mph3.7 kmh 26.49 in897.1 mb - 0.00 in0.0 mm 0.33 in8.4 mm
04:00 PM 63.0°F17.2°C 53.4°F11.9°C 71% 1.2 mph E1.9 kmh E 2.3 mph3.7 kmh 26.49 in897.1 mb - 0.00 in0.0 mm 0.33 in8.4 mm
04:10 PM 63.0°F17.2°C 55.3°F12.9°C 76% 1.2 mph ESE1.9 kmh ESE 1.2 mph1.9 kmh 26.49 in897.1 mb - 0.00 in0.0 mm 0.33 in8.4 mm
04:15 PM 63.0°F17.2°C 54.6°F12.6°C 74% 2.3 mph NW3.7 kmh NW 3.5 mph5.6 kmh 26.49 in897.1 mb - 0.00 in0.0 mm 0.33 in8.4 mm
04:20 PM 62.3°F16.8°C 53.9°F12.2°C 74% 1.2 mph N1.9 kmh N 3.5 mph5.6 kmh 26.50 in897.4 mb - 0.00 in0.0 mm 0.33 in8.4 mm
04:25 PM 62.0°F16.7°C 53.6°F12.0°C 74% Calm Calm 1.2 mph1.9 kmh 26.50 in897.4 mb - 0.00 in0.0 mm 0.33 in8.4 mm
04:30 PM 62.0°F16.7°C 53.6°F12.0°C 74% 1.2 mph SE1.9 kmh SE 1.2 mph1.9 kmh 26.49 in897.1 mb - 0.00 in0.0 mm 0.33 in8.4 mm
04:35 PM 62.0°F16.7°C 52.9°F11.6°C 72% 2.3 mph ENE3.7 kmh ENE 3.5 mph5.6 kmh 26.49 in897.1 mb - 0.00 in0.0 mm 0.33 in8.4 mm
04:40 PM 62.0°F16.7°C 53.2°F11.8°C 73% 1.2 mph N1.9 kmh N 1.2 mph1.9 kmh 26.49 in897.1 mb - 0.00 in0.0 mm 0.33 in8.4 mm
04:45 PM 62.0°F16.7°C 53.2°F11.8°C 73% Calm Calm 1.2 mph1.9 kmh 26.49 in897.1 mb - 0.00 in0.0 mm 0.33 in8.4 mm
04:50 PM 62.6°F17.0°C 54.2°F12.3°C 74% 2.3 mph NW3.7 kmh NW 3.5 mph5.6 kmh 26.48 in896.7 mb - 0.00 in0.0 mm 0.33 in8.4 mm
04:55 PM 63.0°F17.2°C 54.6°F12.6°C 74% 3.5 mph NW5.6 kmh NW 3.5 mph5.6 kmh 26.48 in896.7 mb - 0.00 in0.0 mm 0.33 in8.4 mm
05:00 PM 63.0°F17.2°C 54.9°F12.7°C 75% 2.3 mph WSW3.7 kmh WSW 2.3 mph3.7 kmh 26.49 in897.1 mb - 0.00 in0.0 mm 0.33 in8.4 mm
05:10 PM 62.0°F16.7°C 53.6°F12.0°C 74% 1.2 mph WSW1.9 kmh WSW 3.5 mph5.6 kmh 26.49 in897.1 mb - 0.00 in0.0 mm 0.33 in8.4 mm
05:15 PM 62.0°F16.7°C 53.6°F12.0°C 74% 1.2 mph WSW1.9 kmh WSW 2.3 mph3.7 kmh 26.49 in897.1 mb - 0.00 in0.0 mm 0.33 in8.4 mm
05:20 PM 61.4°F16.3°C 53.4°F11.9°C 75% Calm Calm 2.3 mph3.7 kmh 26.49 in897.1 mb - 0.00 in0.0 mm 0.33 in8.4 mm
05:25 PM 61.0°F16.1°C 53.0°F11.7°C 75% Calm Calm 1.2 mph1.9 kmh 26.49 in897.1 mb - 0.00 in0.0 mm 0.33 in8.4 mm
05:30 PM 61.0°F16.1°C 53.4°F11.9°C 76% Calm Calm 1.2 mph1.9 kmh 26.49 in897.1 mb - 0.00 in0.0 mm 0.33 in8.4 mm
05:35 PM 61.0°F16.1°C 53.0°F11.7°C 75% 1.2 mph NW1.9 kmh NW 1.2 mph1.9 kmh 26.50 in897.4 mb - 0.00 in0.0 mm 0.33 in8.4 mm
05:40 PM 61.0°F16.1°C 52.7°F11.5°C 74% 2.3 mph WNW3.7 kmh WNW 3.5 mph5.6 kmh 26.49 in897.1 mb - 0.00 in0.0 mm 0.33 in8.4 mm
05:45 PM 62.0°F16.7°C 52.9°F11.6°C 72% 2.3 mph ENE3.7 kmh ENE 3.5 mph5.6 kmh 26.49 in897.1 mb - 0.00 in0.0 mm 0.33 in8.4 mm
05:50 PM 61.4°F16.3°C 51.9°F11.1°C 71% 1.2 mph NE1.9 kmh NE 3.5 mph5.6 kmh 26.50 in897.4 mb - 0.00 in0.0 mm 0.33 in8.4 mm
05:55 PM 61.0°F16.1°C 51.1°F10.6°C 70% 1.2 mph NNE1.9 kmh NNE 1.2 mph1.9 kmh 26.51 in897.7 mb - 0.00 in0.0 mm 0.33 in8.4 mm
06:00 PM 60.0°F15.6°C 52.4°F11.3°C 76% Calm Calm 1.2 mph1.9 kmh 26.51 in897.7 mb - 0.00 in0.0 mm 0.33 in8.4 mm
06:10 PM 59.0°F15.0°C 52.5°F11.4°C 79% 1.2 mph WSW1.9 kmh WSW 2.3 mph3.7 kmh 26.50 in897.4 mb - 0.00 in0.0 mm 0.33 in8.4 mm
06:15 PM 59.0°F15.0°C 53.2°F11.8°C 81% 2.3 mph W3.7 kmh W 2.3 mph3.7 kmh 26.51 in897.7 mb - 0.00 in0.0 mm 0.33 in8.4 mm
06:20 PM 59.0°F15.0°C 53.5°F11.9°C 82% 1.2 mph WNW1.9 kmh WNW 2.3 mph3.7 kmh 26.51 in897.7 mb - 0.00 in0.0 mm 0.33 in8.4 mm
06:25 PM 59.0°F15.0°C 53.5°F11.9°C 82% 1.2 mph NE1.9 kmh NE 1.2 mph1.9 kmh 26.51 in897.7 mb - 0.00 in0.0 mm 0.33 in8.4 mm
06:30 PM 59.0°F15.0°C 53.2°F11.8°C 81% Calm Calm -- 26.51 in897.7 mb - 0.00 in0.0 mm 0.33 in8.4 mm
06:35 PM 65.0°F18.3°C 54.6°F12.6°C 69% 2.3 mph NE3.7 kmh NE 2.3 mph3.7 kmh 26.49 in897.1 mb - 0.00 in0.0 mm 0.33 in8.4 mm
06:40 PM 60.0°F15.6°C 52.8°F11.6°C 77% Calm Calm 1.2 mph1.9 kmh 26.52 in898.1 mb - 0.00 in0.0 mm 0.33 in8.4 mm
06:45 PM 60.0°F15.6°C 53.1°F11.7°C 78% 1.2 mph N1.9 kmh N 1.2 mph1.9 kmh 26.53 in898.4 mb - 0.00 in0.0 mm 0.33 in8.4 mm
06:50 PM 60.0°F15.6°C 53.1°F11.7°C 78% Calm Calm 1.2 mph1.9 kmh 26.52 in898.1 mb - 0.00 in0.0 mm 0.33 in8.4 mm
06:55 PM 60.0°F15.6°C 53.1°F11.7°C 78% Calm Calm -- 26.52 in898.1 mb - 0.00 in0.0 mm 0.33 in8.4 mm
07:00 PM 60.0°F15.6°C 53.5°F11.9°C 79% Calm Calm -- 26.53 in898.4 mb - 0.00 in0.0 mm 0.33 in8.4 mm
07:10 PM 59.0°F15.0°C 53.2°F11.8°C 81% Calm Calm -- 26.54 in898.7 mb - 0.00 in0.0 mm 0.33 in8.4 mm
07:15 PM 59.0°F15.0°C 53.2°F11.8°C 81% Calm Calm -- 26.53 in898.4 mb - 0.00 in0.0 mm 0.33 in8.4 mm
07:20 PM 59.0°F15.0°C 53.2°F11.8°C 81% Calm Calm -- 26.53 in898.4 mb - 0.00 in0.0 mm 0.33 in8.4 mm
07:25 PM 59.0°F15.0°C 53.2°F11.8°C 81% Calm Calm -- 26.53 in898.4 mb - 0.00 in0.0 mm 0.33 in8.4 mm
07:30 PM 59.0°F15.0°C 52.8°F11.6°C 80% Calm Calm -- 26.54 in898.7 mb - 0.00 in0.0 mm 0.33 in8.4 mm
07:35 PM 59.0°F15.0°C 52.8°F11.6°C 80% Calm Calm -- 26.54 in898.7 mb - 0.00 in0.0 mm 0.33 in8.4 mm
07:40 PM 59.0°F15.0°C 53.8°F12.1°C 83% Calm Calm -- 26.54 in898.7 mb - 0.00 in0.0 mm 0.33 in8.4 mm
07:45 PM 58.0°F14.4°C 52.9°F11.6°C 83% Calm Calm -- 26.54 in898.7 mb - 0.00 in0.0 mm 0.33 in8.4 mm
07:50 PM 58.0°F14.4°C 53.2°F11.8°C 84% Calm Calm -- 26.54 in898.7 mb - 0.00 in0.0 mm 0.33 in8.4 mm
07:55 PM 58.0°F14.4°C 53.2°F11.8°C 84% Calm Calm -- 26.54 in898.7 mb - 0.00 in0.0 mm 0.33 in8.4 mm
08:00 PM 58.0°F14.4°C 52.9°F11.6°C 83% 1.2 mph N1.9 kmh N 2.3 mph3.7 kmh 26.54 in898.7 mb - 0.00 in0.0 mm 0.33 in8.4 mm
08:10 PM 58.0°F14.4°C 53.2°F11.8°C 84% Calm Calm -- 26.55 in899.1 mb - 0.00 in0.0 mm 0.33 in8.4 mm
08:15 PM 58.0°F14.4°C 53.8°F12.1°C 86% Calm Calm -- 26.55 in899.1 mb - 0.00 in0.0 mm 0.33 in8.4 mm
08:20 PM 57.5°F14.2°C 53.4°F11.9°C 86% Calm Calm -- 26.55 in899.1 mb - 0.00 in0.0 mm 0.33 in8.4 mm
08:25 PM 57.0°F13.9°C 52.9°F11.6°C 86% Calm Calm -- 26.55 in899.1 mb - 0.00 in0.0 mm 0.33 in8.4 mm
08:30 PM 57.0°F13.9°C 53.2°F11.8°C 87% Calm Calm -- 26.55 in899.1 mb - 0.00 in0.0 mm 0.33 in8.4 mm
08:35 PM 59.0°F15.0°C 52.5°F11.4°C 79% 1.2 mph WSW1.9 kmh WSW 2.3 mph3.7 kmh 26.50 in897.4 mb - 0.00 in0.0 mm 0.33 in8.4 mm
08:40 PM 57.0°F13.9°C 53.2°F11.8°C 87% Calm Calm -- 26.56 in899.4 mb - 0.00 in0.0 mm 0.33 in8.4 mm
08:45 PM 57.0°F13.9°C 53.5°F11.9°C 88% Calm Calm -- 26.56 in899.4 mb - 0.00 in0.0 mm 0.33 in8.4 mm
08:50 PM 57.0°F13.9°C 53.5°F11.9°C 88% Calm Calm -- 26.57 in899.8 mb - 0.00 in0.0 mm 0.33 in8.4 mm
08:55 PM 57.0°F13.9°C 53.5°F11.9°C 88% Calm Calm -- 26.57 in899.8 mb - 0.00 in0.0 mm 0.33 in8.4 mm
09:00 PM 57.0°F13.9°C 53.5°F11.9°C 88% Calm Calm -- 26.57 in899.8 mb - 0.00 in0.0 mm 0.33 in8.4 mm
09:10 PM 57.0°F13.9°C 53.2°F11.8°C 87% Calm Calm -- 26.57 in899.8 mb - 0.00 in0.0 mm 0.33 in8.4 mm
09:15 PM 57.0°F13.9°C 53.2°F11.8°C 87% Calm Calm -- 26.57 in899.8 mb - 0.00 in0.0 mm 0.33 in8.4 mm
09:20 PM 57.0°F13.9°C 53.2°F11.8°C 87% Calm Calm -- 26.57 in899.8 mb - 0.00 in0.0 mm 0.33 in8.4 mm
09:25 PM 57.0°F13.9°C 53.2°F11.8°C 87% Calm Calm -- 26.57 in899.8 mb - 0.00 in0.0 mm 0.33 in8.4 mm
09:30 PM 57.0°F13.9°C 53.5°F11.9°C 88% Calm Calm -- 26.58 in900.1 mb - 0.00 in0.0 mm 0.33 in8.4 mm
09:35 PM 57.0°F13.9°C 53.8°F12.1°C 89% Calm Calm -- 26.57 in899.8 mb - 0.00 in0.0 mm 0.33 in8.4 mm
09:40 PM 57.0°F13.9°C 54.1°F12.3°C 90% Calm Calm -- 26.58 in900.1 mb - 0.00 in0.0 mm 0.33 in8.4 mm
09:45 PM 56.0°F13.3°C 52.8°F11.6°C 89% Calm Calm -- 26.57 in899.8 mb - 0.00 in0.0 mm 0.33 in8.4 mm
09:50 PM 56.0°F13.3°C 53.1°F11.7°C 90% Calm Calm -- 26.58 in900.1 mb - 0.00 in0.0 mm 0.33 in8.4 mm
09:55 PM 56.0°F13.3°C 53.4°F11.9°C 91% Calm Calm -- 26.58 in900.1 mb - 0.00 in0.0 mm 0.33 in8.4 mm
10:00 PM 56.0°F13.3°C 53.4°F11.9°C 91% Calm Calm -- 26.58 in900.1 mb - 0.00 in0.0 mm 0.33 in8.4 mm
10:10 PM 56.0°F13.3°C 53.7°F12.1°C 92% Calm Calm -- 26.58 in900.1 mb - 0.00 in0.0 mm 0.33 in8.4 mm
10:15 PM 56.0°F13.3°C 53.7°F12.1°C 92% Calm Calm -- 26.59 in900.4 mb - 0.00 in0.0 mm 0.33 in8.4 mm
10:20 PM 56.0°F13.3°C 54.0°F12.2°C 93% Calm Calm -- 26.58 in900.1 mb - 0.01 in0.3 mm 0.34 in8.6 mm
10:25 PM 56.0°F13.3°C 54.3°F12.4°C 94% Calm Calm -- 26.58 in900.1 mb - 0.01 in0.3 mm 0.34 in8.6 mm
10:30 PM 56.0°F13.3°C 54.3°F12.4°C 94% Calm Calm -- 26.58 in900.1 mb - 0.02 in0.5 mm 0.35 in8.9 mm
10:35 PM 55.7°F13.2°C 54.0°F12.2°C 94% Calm Calm -- 26.58 in900.1 mb - 0.02 in0.5 mm 0.35 in8.9 mm
10:40 PM 55.0°F12.8°C 53.3°F11.8°C 94% Calm Calm -- 26.58 in900.1 mb - 0.02 in0.5 mm 0.35 in8.9 mm
10:45 PM 55.0°F12.8°C 53.3°F11.8°C 94% Calm Calm -- 26.59 in900.4 mb - 0.02 in0.5 mm 0.35 in8.9 mm
10:50 PM 55.0°F12.8°C 53.3°F11.8°C 94% Calm Calm -- 26.58 in900.1 mb - 0.02 in0.5 mm 0.35 in8.9 mm
10:55 PM 55.0°F12.8°C 53.6°F12.0°C 95% Calm Calm -- 26.58 in900.1 mb - 0.02 in0.5 mm 0.35 in8.9 mm
11:00 PM 55.0°F12.8°C 53.6°F12.0°C 95% Calm Calm -- 26.58 in900.1 mb - 0.02 in0.5 mm 3.55 in90.2 mm
11:10 PM 55.0°F12.8°C 53.6°F12.0°C 95% Calm Calm -- 26.59 in900.4 mb - 0.02 in0.5 mm 3.57 in90.7 mm
11:15 PM 55.0°F12.8°C 53.6°F12.0°C 95% Calm Calm -- 26.58 in900.1 mb - 0.02 in0.5 mm 3.59 in91.2 mm
11:20 PM 55.0°F12.8°C 53.9°F12.2°C 96% Calm Calm -- 26.59 in900.4 mb - 0.01 in0.3 mm 3.60 in91.4 mm
11:25 PM 55.0°F12.8°C 53.6°F12.0°C 95% Calm Calm -- 26.57 in899.8 mb - 0.01 in0.3 mm 3.61 in91.7 mm
11:30 PM 55.0°F12.8°C 53.6°F12.0°C 95% Calm Calm -- 26.58 in900.1 mb - 0.00 in0.0 mm 3.61 in91.7 mm
11:35 PM 55.0°F12.8°C 53.9°F12.2°C 96% Calm Calm -- 26.58 in900.1 mb - 0.00 in0.0 mm 3.61 in91.7 mm
11:40 PM 55.0°F12.8°C 53.6°F12.0°C 95% Calm Calm -- 26.58 in900.1 mb - 0.00 in0.0 mm 3.61 in91.7 mm
11:45 PM 55.0°F12.8°C 53.6°F12.0°C 95% Calm Calm -- 26.58 in900.1 mb - 0.00 in0.0 mm 3.61 in91.7 mm
11:50 PM 55.0°F12.8°C 53.6°F12.0°C 95% Calm Calm -- 26.58 in900.1 mb - 0.00 in0.0 mm 3.61 in91.7 mm
11:55 PM 55.0°F12.8°C 53.6°F12.0°C 95% Calm Calm -- 26.58 in900.1 mb - 0.00 in0.0 mm 3.61 in91.7 mm